Time;durP1;ratioP1;P1;durP2;ratioP2;P2;SDS_P1;SDS_P2;PMS_P1;PMS_P2;Temp;Humidity;BMP_temperature;BMP_pressure;BME280_temperature;BME280_humidity;BME280_pressure;Samples;Min_cycle;Max_cycle;Signal;HPM_P1;HPM_P2
2021/05/15 00:01:08;;;;;;;2.60;1.40;;;13.10;85.70;;;;;;6188150;23;20420;-87
2021/05/15 00:03:34;;;;;;;1.20;1.00;;;13.10;85.80;;;;;;6191985;23;20727;-88
2021/05/15 00:06:01;;;;;;;2.40;1.17;;;13.10;86.00;;;;;;6192779;23;21034;-88
2021/05/15 00:08:27;;;;;;;0.77;0.77;;;13.10;86.10;;;;;;6190030;23;20437;-86
2021/05/15 00:10:57;;;;;;;1.43;1.07;;;13.10;86.10;;;;;;6192680;23;20450;-88
2021/05/15 00:13:26;;;;;;;2.13;1.00;;;13.10;86.60;;;;;;6207361;23;20447;-86
2021/05/15 00:16:02;;;;;;;1.20;0.90;;;13.10;87.40;;;;;;6198233;23;20766;-87
2021/05/15 00:18:30;;;;;;;1.80;1.27;;;13.10;86.20;;;;;;6209102;23;20466;-87
2021/05/15 00:20:57;;;;;;;2.10;0.97;;;13.00;86.30;;;;;;6193032;23;20418;-88
2021/05/15 00:23:26;;;;;;;2.00;1.00;;;13.00;87.20;;;;;;6203807;23;20409;-87
2021/05/15 00:25:58;;;;;;;1.30;1.00;;;12.90;87.50;;;;;;6191957;23;20525;-88
2021/05/15 00:28:25;;;;;;;1.20;1.10;;;12.90;88.30;;;;;;6190242;23;20441;-88
2021/05/15 00:30:56;;;;;;;1.57;1.00;;;12.90;88.10;;;;;;6206185;23;20430;-87
2021/05/15 00:33:26;;;;;;;1.77;1.00;;;12.90;87.80;;;;;;6212626;23;20403;-87
2021/05/15 00:35:56;;;;;;;2.60;1.30;;;12.90;86.60;;;;;;6194815;23;20515;-88
2021/05/15 00:38:24;;;;;;;1.53;1.07;;;12.80;86.80;;;;;;6209378;23;20394;-86
2021/05/15 00:40:50;;;;;;;2.20;1.43;;;12.80;86.70;;;;;;6193264;23;20485;-88
2021/05/15 00:43:18;;;;;;;1.03;0.93;;;12.70;87.10;;;;;;6187439;23;20400;-87
2021/05/15 00:45:47;;;;;;;1.17;1.00;;;12.70;87.20;;;;;;6191653;23;20452;-87
2021/05/15 00:48:14;;;;;;;0.80;0.80;;;12.70;87.50;;;;;;6196681;23;20887;-87
2021/05/15 00:50:46;;;;;;;1.13;0.90;;;12.60;87.40;;;;;;6192496;23;20419;-87
2021/05/15 00:53:17;;;;;;;1.23;0.93;;;12.60;87.80;;;;;;6212852;23;20410;-86
2021/05/15 00:55:50;;;;;;;0.90;0.90;;;12.50;88.20;;;;;;6198664;23;20428;-88
2021/05/15 00:58:16;;;;;;;1.80;1.03;;;12.50;88.20;;;;;;6186879;23;20460;-88
2021/05/15 01:00:47;;;;;;;1.43;1.13;;;12.40;88.60;;;;;;6186176;23;20465;-88
2021/05/15 01:03:14;;;;;;;1.50;1.13;;;12.30;88.80;;;;;;6185869;23;20416;-89
2021/05/15 01:05:43;;;;;;;1.60;1.10;;;12.30;89.00;;;;;;6194409;23;20439;-88
2021/05/15 01:08:13;;;;;;;1.53;1.00;;;12.30;88.50;;;;;;6201201;23;20417;-88
2021/05/15 01:10:48;;;;;;;1.57;0.90;;;12.30;88.40;;;;;;6188403;23;20445;-88
2021/05/15 01:13:15;;;;;;;3.50;0.90;;;12.30;88.80;;;;;;6186549;23;20394;-88
2021/05/15 01:15:43;;;;;;;1.23;0.97;;;12.20;88.50;;;;;;6185319;23;20444;-87
2021/05/15 01:18:10;;;;;;;1.67;0.90;;;12.20;89.10;;;;;;6185796;23;20412;-88
2021/05/15 01:20:39;;;;;;;1.10;0.70;;;12.10;89.30;;;;;;6185146;23;20551;-88
2021/05/15 01:23:06;;;;;;;2.80;1.07;;;12.20;89.40;;;;;;6185232;23;20893;-87
2021/05/15 01:25:34;;;;;;;0.80;0.73;;;12.10;89.20;;;;;;6194467;23;20434;-87
2021/05/15 01:28:05;;;;;;;1.10;0.83;;;12.10;89.70;;;;;;6191511;23;20428;-88
2021/05/15 01:30:38;;;;;;;2.33;0.80;;;12.00;90.20;;;;;;6185169;23;20460;-88
2021/05/15 01:33:11;;;;;;;0.90;0.80;;;12.00;90.40;;;;;;6185596;23;20947;-88
2021/05/15 01:35:37;;;;;;;1.17;1.00;;;12.00;90.20;;;;;;6184832;23;20485;-87
2021/05/15 01:38:04;;;;;;;1.77;1.00;;;11.90;90.20;;;;;;6188053;23;20375;-88
2021/05/15 01:40:38;;;;;;;2.17;0.90;;;11.90;90.30;;;;;;6191856;23;20390;-88
2021/05/15 01:43:10;;;;;;;2.00;1.37;;;11.90;90.50;;;;;;6188837;23;20493;-88
2021/05/15 01:45:41;;;;;;;2.97;0.97;;;12.00;90.90;;;;;;6187719;23;20442;-88
2021/05/15 01:48:18;;;;;;;1.40;1.30;;;12.00;90.70;;;;;;6195476;23;20470;-88
2021/05/15 01:51:01;;;;;;;1.67;0.90;;;12.00;90.50;;;;;;6190453;23;20420;-88
2021/05/15 01:53:32;;;;;;;1.47;1.00;;;12.10;90.70;;;;;;6195311;23;20410;-88
2021/05/15 01:56:04;;;;;;;1.73;1.40;;;12.00;90.80;;;;;;6197229;23;20422;-88
2021/05/15 01:58:39;;;;;;;2.43;1.30;;;12.00;91.10;;;;;;6203263;23;20473;-89
2021/05/15 02:01:12;;;;;;;1.80;1.23;;;12.00;91.00;;;;;;6189370;23;20417;-88
2021/05/15 02:03:47;;;;;;;1.30;0.93;;;12.00;91.00;;;;;;6187937;23;20407;-88
2021/05/15 02:06:25;;;;;;;1.47;1.00;;;12.00;91.30;;;;;;6202851;23;20448;-88
2021/05/15 02:08:54;;;;;;;2.10;1.47;;;11.90;91.00;;;;;;6212763;23;20379;-88
2021/05/15 02:11:26;;;;;;;1.27;1.10;;;11.90;91.60;;;;;;6192468;23;20424;-88
2021/05/15 02:14:01;;;;;;;1.77;0.90;;;11.80;91.30;;;;;;6189225;23;20494;-88
2021/05/15 02:16:27;;;;;;;3.90;1.37;;;11.80;91.50;;;;;;6204745;23;20418;-87
2021/05/15 02:19:03;;;;;;;2.00;1.20;;;11.70;91.60;;;;;;6203866;23;20406;-88
2021/05/15 02:21:37;;;;;;;6.70;1.20;;;11.70;91.80;;;;;;6192814;23;20386;-88
2021/05/15 02:24:10;;;;;;;1.03;0.93;;;11.70;91.90;;;;;;6188879;23;20415;-88
2021/05/15 02:26:39;;;;;;;1.73;1.33;;;11.70;92.10;;;;;;6191449;23;20445;-88
2021/05/15 02:29:05;;;;;;;3.10;1.20;;;11.60;92.40;;;;;;6209835;23;20469;-88
2021/05/15 02:31:32;;;;;;;1.60;1.20;;;11.60;92.60;;;;;;6196164;23;20434;-88
2021/05/15 02:34:02;;;;;;;2.07;1.00;;;11.50;92.50;;;;;;6206590;23;20390;-88
2021/05/15 02:36:32;;;;;;;1.60;1.20;;;11.50;92.80;;;;;;6188138;23;20438;-88
2021/05/15 02:39:03;;;;;;;2.00;1.23;;;11.50;92.80;;;;;;6186915;23;20421;-88
2021/05/15 02:41:34;;;;;;;1.77;1.00;;;11.50;92.90;;;;;;6187060;23;20473;-89
2021/05/15 02:44:10;;;;;;;1.83;0.97;;;11.50;93.20;;;;;;6187918;23;20417;-88
2021/05/15 02:46:38;;;;;;;1.40;1.20;;;11.50;93.30;;;;;;6209991;23;20479;-88
2021/05/15 02:49:09;;;;;;;2.33;1.20;;;11.40;93.40;;;;;;6193070;23;20412;-88
2021/05/15 02:51:36;;;;;;;1.70;1.20;;;11.40;93.60;;;;;;6188472;23;20464;-88
2021/05/15 02:54:05;;;;;;;1.53;1.20;;;11.40;93.70;;;;;;6209531;23;20474;-88
2021/05/15 02:56:41;;;;;;;2.13;1.07;;;11.30;93.90;;;;;;6212754;23;20414;-89
2021/05/15 02:59:08;;;;;;;1.40;1.10;;;11.20;94.10;;;;;;6192537;23;20442;-89
2021/05/15 03:01:46;;;;;;;1.80;1.07;;;11.20;94.40;;;;;;6188869;23;20414;-88
2021/05/15 03:04:14;;;;;;;4.73;1.37;;;11.10;94.80;;;;;;6204722;23;20473;-87
2021/05/15 03:06:52;;;;;;;1.07;0.90;;;11.00;95.20;;;;;;6188375;23;20464;-88
2021/05/15 03:09:23;;;;;;;1.80;1.07;;;11.00;96.50;;;;;;6194977;23;20398;-87
2021/05/15 03:12:01;;;;;;;2.50;1.20;;;11.00;95.20;;;;;;6196589;23;20496;-87
2021/05/15 03:14:30;;;;;;;3.40;1.37;;;11.00;95.50;;;;;;6202705;23;20386;-88
2021/05/15 03:16:59;;;;;;;1.23;1.10;;;10.90;95.90;;;;;;6212057;23;20429;-88
2021/05/15 03:19:34;;;;;;;1.50;1.40;;;11.00;96.00;;;;;;6212506;23;20401;-89
2021/05/15 03:22:04;;;;;;;2.33;1.20;;;11.00;96.00;;;;;;6208847;23;20485;-88
2021/05/15 03:24:31;;;;;;;4.30;1.30;;;11.00;96.00;;;;;;6212238;23;20398;-89
2021/05/15 03:27:06;;;;;;;1.43;1.00;;;10.90;96.20;;;;;;6210883;23;20445;-89
2021/05/15 03:29:33;;;;;;;1.47;1.17;;;10.90;96.20;;;;;;6203091;23;20413;-89
2021/05/15 03:32:03;;;;;;;3.00;1.33;;;10.90;96.50;;;;;;6195772;23;20390;-89
2021/05/15 03:34:33;;;;;;;2.33;1.53;;;10.80;96.70;;;;;;6188934;23;20899;-89
2021/05/15 03:37:02;;;;;;;2.10;1.20;;;10.80;96.70;;;;;;6187774;23;20529;-88
2021/05/15 03:39:32;;;;;;;1.93;1.30;;;10.80;96.90;;;;;;6187287;23;20418;-88
2021/05/15 03:41:59;;;;;;;2.23;1.27;;;10.80;97.00;;;;;;6187001;23;20402;-89
2021/05/15 03:44:39;;;;;;;2.00;1.20;;;10.80;96.90;;;;;;6194797;23;20970;-89
2021/05/15 03:47:11;;;;;;;1.80;1.40;;;10.70;97.10;;;;;;6187185;23;20441;-89
2021/05/15 03:49:53;;;;;;;3.83;1.40;;;10.60;97.40;;;;;;6190550;23;20442;-89
2021/05/15 03:52:22;;;;;;;2.80;1.23;;;10.70;97.80;;;;;;6183008;23;20414;-89
2021/05/15 03:54:51;;;;;;;1.20;1.00;;;10.70;97.50;;;;;;6188423;23;20414;-88
2021/05/15 03:57:22;;;;;;;2.03;0.97;;;10.70;97.40;;;;;;6185490;23;20461;-89
2021/05/15 03:59:51;;;;;;;1.07;0.93;;;10.80;97.60;;;;;;6187600;23;20502;-88
2021/05/15 04:02:22;;;;;;;4.60;1.70;;;11.00;97.20;;;;;;6187742;23;20409;-88
2021/05/15 04:04:49;;;;;;;2.23;1.57;;;11.00;97.00;;;;;;6187815;23;20747;-88
2021/05/15 04:07:19;;;;;;;1.20;1.00;;;11.10;96.80;;;;;;6187023;23;20446;-89
2021/05/15 04:09:53;;;;;;;1.93;1.47;;;11.10;96.60;;;;;;6187001;23;20418;-89
2021/05/15 04:12:30;;;;;;;2.80;1.70;;;11.20;96.30;;;;;;6186733;23;20420;-89
2021/05/15 04:15:06;;;;;;;1.47;1.10;;;11.30;96.10;;;;;;6186326;23;20394;-89
2021/05/15 04:17:41;;;;;;;2.03;1.60;;;11.40;95.70;;;;;;6187051;23;20389;-88
2021/05/15 04:20:14;;;;;;;1.47;1.33;;;11.50;95.70;;;;;;6186997;23;20413;-89
2021/05/15 04:22:45;;;;;;;2.23;1.10;;;11.50;95.50;;;;;;6186595;23;20608;-89
2021/05/15 04:25:16;;;;;;;4.47;1.57;;;11.60;95.40;;;;;;6200163;23;20409;-88
2021/05/15 04:27:43;;;;;;;1.87;1.50;;;11.60;95.20;;;;;;6197744;23;20448;-88
2021/05/15 04:30:15;;;;;;;1.40;1.27;;;11.60;95.40;;;;;;6188194;23;20497;-88
2021/05/15 04:32:47;;;;;;;1.80;1.10;;;11.70;95.30;;;;;;6188025;23;20403;-89
2021/05/15 04:35:21;;;;;;;2.03;1.40;;;11.70;95.20;;;;;;6187436;23;20440;-89
2021/05/15 04:37:53;;;;;;;3.30;1.33;;;11.70;95.00;;;;;;6187931;23;20475;-89
2021/05/15 04:40:26;;;;;;;1.20;1.10;;;11.80;95.40;;;;;;6189537;23;20921;-88
2021/05/15 04:42:58;;;;;;;2.60;1.50;;;11.90;94.70;;;;;;6199909;23;20391;-88
2021/05/15 04:45:34;;;;;;;2.27;1.67;;;11.80;94.70;;;;;;6206038;23;20414;-89
2021/05/15 04:48:05;;;;;;;3.87;1.23;;;11.90;94.80;;;;;;6203601;23;20838;-89
2021/05/15 04:50:36;;;;;;;2.30;2.00;;;12.00;94.60;;;;;;6206476;23;20398;-89
2021/05/15 04:53:05;;;;;;;2.33;1.67;;;12.00;94.50;;;;;;6205063;23;20386;-89
2021/05/15 04:55:43;;;;;;;3.00;1.40;;;12.10;94.90;;;;;;6205512;23;20418;-88
2021/05/15 04:58:10;;;;;;;4.13;1.40;;;12.20;94.80;;;;;;6211492;23;20450;-88
2021/05/15 05:00:42;;;;;;;2.20;1.17;;;12.30;94.40;;;;;;6208290;23;20411;-88
2021/05/15 05:03:16;;;;;;;3.03;1.47;;;12.30;94.20;;;;;;6196735;23;20429;-89
2021/05/15 05:05:48;;;;;;;2.00;1.10;;;12.30;94.30;;;;;;6191192;23;20416;-88
2021/05/15 05:08:21;;;;;;;1.30;1.00;;;12.30;93.90;;;;;;6206086;23;20402;-89
2021/05/15 05:10:48;;;;;;;1.60;1.20;;;12.30;93.30;;;;;;6194129;23;20411;-88
2021/05/15 05:13:22;;;;;;;3.73;1.00;;;12.40;93.50;;;;;;6190057;23;20830;-89
2021/05/15 05:15:52;;;;;;;1.77;0.90;;;12.50;93.00;;;;;;6189500;23;20461;-88
2021/05/15 05:18:25;;;;;;;4.33;1.13;;;12.70;92.80;;;;;;6189852;23;20787;-89
2021/05/15 05:20:57;;;;;;;6.20;1.57;;;13.10;92.20;;;;;;6194860;23;20471;-89
2021/05/15 05:23:29;;;;;;;1.30;1.00;;;13.40;91.40;;;;;;6189772;23;20522;-89
2021/05/15 05:25:55;;;;;;;1.00;0.90;;;13.70;90.80;;;;;;6196187;23;21026;-88
2021/05/15 05:28:31;;;;;;;1.30;0.90;;;13.80;89.30;;;;;;6199372;23;20410;-88
2021/05/15 05:31:10;;;;;;;1.47;1.10;;;14.00;89.30;;;;;;6203866;23;20464;-89
2021/05/15 05:33:41;;;;;;;2.27;1.00;;;14.20;89.00;;;;;;6190127;23;20488;-88
2021/05/15 05:36:11;;;;;;;1.20;1.03;;;14.70;87.50;;;;;;6190184;23;20492;-88
2021/05/15 05:38:42;;;;;;;2.80;0.87;;;15.10;85.90;;;;;;6211977;23;20450;-88
2021/05/15 05:41:20;;;;;;;1.47;1.07;;;15.30;84.60;;;;;;6215285;23;20402;-89
2021/05/15 05:43:47;;;;;;;1.20;1.10;;;15.20;82.10;;;;;;6214896;23;20435;-88
2021/05/15 05:46:14;;;;;;;1.40;0.90;;;15.00;83.50;;;;;;6214152;23;20439;-88
2021/05/15 05:48:42;;;;;;;2.17;1.07;;;14.70;83.10;;;;;;6197291;23;20418;-89
2021/05/15 05:51:09;;;;;;;1.00;0.80;;;14.40;84.60;;;;;;6200018;23;20410;-87
2021/05/15 05:53:44;;;;;;;2.50;0.90;;;14.40;84.80;;;;;;6214789;23;20401;-88
2021/05/15 05:56:23;;;;;;;0.90;0.70;;;14.60;83.90;;;;;;6214384;23;20436;-88
2021/05/15 05:58:55;;;;;;;2.20;1.00;;;14.60;83.20;;;;;;6202935;23;20497;-88
2021/05/15 06:01:27;;;;;;;1.87;1.00;;;14.50;83.10;;;;;;6211704;23;20397;-88
2021/05/15 06:03:56;;;;;;;1.03;0.80;;;14.40;83.50;;;;;;6214604;23;20400;-89
2021/05/15 06:06:23;;;;;;;3.63;1.00;;;14.10;82.90;;;;;;6203025;23;20444;-88
2021/05/15 06:08:53;;;;;;;1.00;0.90;;;14.00;84.40;;;;;;6214521;23;20461;-87
2021/05/15 06:11:23;;;;;;;3.53;1.20;;;14.70;83.70;;;;;;6206972;23;20504;-88
2021/05/15 06:14:02;;;;;;;1.50;0.70;;;15.20;80.70;;;;;;6200841;23;20402;-88
2021/05/15 06:16:29;;;;;;;1.03;0.80;;;15.70;78.70;;;;;;6191417;23;20429;-88
2021/05/15 06:18:57;;;;;;;1.30;0.80;;;15.70;78.00;;;;;;6191287;23;20501;-88
2021/05/15 06:21:27;;;;;;;3.20;1.00;;;16.00;77.20;;;;;;6190560;23;20987;-88
2021/05/15 06:24:03;;;;;;;2.63;1.00;;;16.50;77.80;;;;;;6190851;23;20437;-89
2021/05/15 06:26:53;;;;;;;1.30;0.63;;;17.20;75.30;;;;;;6188160;23;20445;-89
2021/05/15 06:29:31;;;;;;;1.27;0.80;;;17.40;72.30;;;;;;6188017;23;20414;-89
2021/05/15 06:32:06;;;;;;;2.70;1.17;;;17.60;71.30;;;;;;6187838;23;20410;-88
2021/05/15 06:34:42;;;;;;;2.60;1.20;;;18.30;70.90;;;;;;6187988;23;20907;-89
2021/05/15 06:40:37;;;;;;;1.20;0.70;;;20.20;65.70;;;;;;6159247;23;21050;-89
2021/05/15 06:43:20;;;;;;;2.07;1.10;;;21.40;62.60;;;;;;6189183;23;20414;-88
2021/05/15 06:46:00;;;;;;;1.10;0.90;;;21.60;59.80;;;;;;6188508;23;20423;-88
2021/05/15 06:48:46;;;;;;;1.20;0.63;;;22.40;58.50;;;;;;6192597;23;20495;-89
2021/05/15 06:51:31;;;;;;;1.17;0.70;;;22.70;56.20;;;;;;6194160;23;20421;-89
2021/05/15 06:54:19;;;;;;;1.10;0.73;;;22.70;56.40;;;;;;6212307;23;20386;-89
2021/05/15 06:57:03;;;;;;;1.87;0.77;;;22.10;55.20;;;;;;6213456;23;20400;-89
2021/05/15 06:59:36;;;;;;;1.73;0.70;;;21.70;56.80;;;;;;6202839;23;20415;-88
2021/05/15 07:02:06;;;;;;;2.23;0.93;;;21.60;57.30;;;;;;6208238;23;20421;-89
2021/05/15 07:04:50;;;;;;;0.70;0.50;;;21.90;57.20;;;;;;6207558;23;20403;-88
2021/05/15 07:07:23;;;;;;;1.13;0.70;;;21.90;54.90;;;;;;6208447;23;20447;-89
2021/05/15 07:09:56;;;;;;;1.53;0.73;;;21.30;56.00;;;;;;6212777;23;20409;-89
2021/05/15 07:12:41;;;;;;;1.33;0.90;;;20.50;56.80;;;;;;6203419;23;20380;-87
2021/05/15 07:15:09;;;;;;;2.37;1.13;;;19.10;59.00;;;;;;6212646;23;20414;-89
2021/05/15 07:17:55;;;;;;;1.80;0.93;;;17.90;62.50;;;;;;6213067;23;20410;-89
2021/05/15 07:20:28;;;;;;;1.43;0.80;;;17.50;65.70;;;;;;6212626;23;20386;-88
2021/05/15 07:22:57;;;;;;;1.63;1.00;;;17.20;66.90;;;;;;6206307;23;20414;-88
2021/05/15 07:25:24;;;;;;;2.60;1.33;;;16.70;67.10;;;;;;6200831;23;20446;-89
2021/05/15 07:27:51;;;;;;;1.60;0.87;;;16.70;70.20;;;;;;6198519;23;20474;-89
2021/05/15 07:30:37;;;;;;;1.30;0.93;;;16.70;69.30;;;;;;6194677;23;20502;-90
2021/05/15 07:33:07;;;;;;;1.40;1.10;;;16.40;69.10;;;;;;6194797;23;20429;-89
2021/05/15 07:35:40;;;;;;;2.30;1.30;;;16.10;70.50;;;;;;6210981;23;20401;-89
2021/05/15 07:38:14;;;;;;;1.00;0.80;;;15.70;71.10;;;;;;6210947;23;20394;-89
2021/05/15 07:40:43;;;;;;;1.07;0.97;;;15.60;72.20;;;;;;6204796;23;20395;-89
2021/05/15 07:43:10;;;;;;;1.93;0.87;;;15.70;72.90;;;;;;6200880;23;20402;-89
2021/05/15 07:45:37;;;;;;;3.10;0.80;;;15.80;73.60;;;;;;6195245;23;20457;-89
2021/05/15 07:48:07;;;;;;;1.57;1.17;;;15.90;72.70;;;;;;6207963;23;20440;-89
2021/05/15 07:50:36;;;;;;;0.83;0.70;;;15.90;71.60;;;;;;6208005;23;20420;-89
2021/05/15 07:53:03;;;;;;;1.80;1.10;;;16.00;71.60;;;;;;6196771;23;20415;-89
2021/05/15 07:55:30;;;;;;;0.83;0.70;;;16.20;71.20;;;;;;6194120;23;20501;-88
2021/05/15 07:58:11;;;;;;;1.83;0.90;;;16.20;70.40;;;;;;6206198;23;20385;-88
2021/05/15 08:00:40;;;;;;;2.30;1.00;;;16.20;70.70;;;;;;6202862;23;20955;-89
2021/05/15 08:03:07;;;;;;;1.60;0.90;;;16.20;70.80;;;;;;6206412;23;20382;-89
2021/05/15 08:05:35;;;;;;;1.10;0.90;;;16.40;70.30;;;;;;6199431;23;20429;-88
2021/05/15 08:08:03;;;;;;;2.03;1.40;;;16.60;70.00;;;;;;6190485;23;20441;-89
2021/05/15 08:10:34;;;;;;;1.70;0.70;;;16.70;68.90;;;;;;6187943;23;20413;-89
2021/05/15 08:13:03;;;;;;;1.57;1.00;;;16.40;69.60;;;;;;6187892;23;20455;-89
2021/05/15 08:15:30;;;;;;;4.23;1.20;;;16.30;70.50;;;;;;6212186;23;20437;-89
2021/05/15 08:17:58;;;;;;;2.30;1.37;;;16.30;70.90;;;;;;6192820;23;20505;-89
2021/05/15 08:20:25;;;;;;;3.10;1.50;;;16.40;71.10;;;;;;6188914;23;20413;-87
2021/05/15 08:22:55;;;;;;;1.20;1.10;;;16.50;69.70;;;;;;6190414;23;20390;-89
2021/05/15 08:25:25;;;;;;;1.33;0.70;;;16.50;70.30;;;;;;6189308;23;20426;-89
2021/05/15 08:27:53;;;;;;;2.50;0.90;;;16.50;70.90;;;;;;6187699;23;20434;-89
2021/05/15 08:30:22;;;;;;;3.50;1.10;;;16.50;69.80;;;;;;6187585;23;20437;-89
2021/05/15 08:32:53;;;;;;;1.27;0.80;;;16.30;68.80;;;;;;6188511;23;20426;-89
2021/05/15 08:35:26;;;;;;;3.00;1.00;;;16.20;70.40;;;;;;6186649;23;20461;-89
2021/05/15 08:37:55;;;;;;;1.00;0.80;;;16.20;70.60;;;;;;6157693;23;21038;-89
2021/05/15 08:40:25;;;;;;;1.20;0.90;;;16.10;69.90;;;;;;6158448;23;20407;-89
2021/05/15 08:42:54;;;;;;;1.30;0.83;;;16.00;69.90;;;;;;6157233;23;20442;-89
2021/05/15 08:45:21;;;;;;;1.13;0.90;;;16.00;69.80;;;;;;6178093;23;20437;-89
2021/05/15 08:47:48;;;;;;;1.80;1.00;;;16.20;70.60;;;;;;6184228;23;20434;-88
2021/05/15 08:50:16;;;;;;;1.10;1.00;;;16.30;69.50;;;;;;6169859;23;20421;-88
2021/05/15 08:52:46;;;;;;;1.23;1.10;;;16.30;69.50;;;;;;6179223;23;20392;-88
2021/05/15 08:55:25;;;;;;;2.13;0.90;;;16.10;69.70;;;;;;6184612;23;20450;-88
2021/05/15 08:57:52;;;;;;;1.83;0.93;;;16.10;71.00;;;;;;6176215;23;20417;-87
2021/05/15 09:00:23;;;;;;;1.03;0.90;;;16.10;70.90;;;;;;6181301;23;20421;-88
2021/05/15 09:02:52;;;;;;;1.47;1.00;;;16.20;70.70;;;;;;6166003;23;20390;-89
2021/05/15 09:05:21;;;;;;;4.50;0.90;;;16.00;70.50;;;;;;6165780;23;20431;-90
2021/05/15 09:07:50;;;;;;;1.20;1.07;;;16.10;71.80;;;;;;6158281;23;20492;-90
2021/05/15 09:10:19;;;;;;;1.67;1.10;;;15.90;70.40;;;;;;6164355;23;20438;-87
2021/05/15 09:12:46;;;;;;;1.80;0.60;;;15.90;70.70;;;;;;6164318;23;20901;-89
2021/05/15 09:15:15;;;;;;;1.10;0.80;;;16.00;70.00;;;;;;6159629;23;20413;-89
2021/05/15 09:17:43;;;;;;;2.23;0.93;;;16.00;71.10;;;;;;6158286;23;20414;-90
2021/05/15 09:20:11;;;;;;;1.73;1.00;;;16.00;70.60;;;;;;6157236;23;20937;-87
2021/05/15 09:22:37;;;;;;;0.90;0.70;;;15.80;70.80;;;;;;6160554;23;20391;-89
2021/05/15 09:25:05;;;;;;;2.33;1.03;;;16.00;71.20;;;;;;6158870;23;20418;-88
2021/05/15 09:27:33;;;;;;;1.10;0.93;;;16.20;70.50;;;;;;6164296;23;20520;-89
2021/05/15 09:30:01;;;;;;;1.70;1.10;;;16.50;70.10;;;;;;6159049;23;20912;-88
2021/05/15 09:32:33;;;;;;;1.20;0.90;;;16.70;69.10;;;;;;6159188;23;20919;-89
2021/05/15 09:35:01;;;;;;;1.30;0.97;;;17.10;67.90;;;;;;6159101;23;20477;-89
2021/05/15 09:37:30;;;;;;;3.60;1.10;;;17.40;66.40;;;;;;6186862;23;20429;-89
2021/05/15 09:40:09;;;;;;;1.20;0.60;;;17.60;66.10;;;;;;6191260;23;20414;-88
2021/05/15 09:42:48;;;;;;;1.63;1.10;;;18.00;64.50;;;;;;6191268;23;20374;-90
2021/05/15 09:45:22;;;;;;;1.60;0.77;;;19.50;63.70;;;;;;6195592;23;20437;-90
2021/05/15 09:47:54;;;;;;;1.83;1.10;;;20.50;58.60;;;;;;6192380;23;20532;-89
2021/05/15 09:50:22;;;;;;;2.60;0.90;;;20.60;58.50;;;;;;6192954;23;20442;-89
2021/05/15 09:52:49;;;;;;;1.10;1.00;;;20.90;58.00;;;;;;6193448;23;20414;-88
2021/05/15 09:55:18;;;;;;;2.10;0.73;;;20.90;57.70;;;;;;6192020;23;20438;-87
2021/05/15 10:05:02;;;;;;;1.40;0.93;;;20.20;58.00;;;;;;6198966;23;20413;-89
2021/05/15 10:11:58;;;;;;;1.50;1.40;;;18.90;59.90;;;;;;6170038;23;20750;-89
2021/05/15 10:34:32;;;;;;;1.77;0.90;;;18.60;62.70;;;;;;6123782;22;2554851;-88
2021/05/15 10:37:54;;;;;;;1.00;0.80;;;18.10;61.60;;;;;;6219306;23;20201;-87
2021/05/15 10:40:45;;;;;;;1.27;1.10;;;17.90;63.40;;;;;;6219501;23;20431;-88
2021/05/15 10:47:05;;;;;;;2.13;1.10;;;18.40;63.90;;;;;;6121618;23;20404;-88
2021/05/15 10:50:05;;;;;;;;;;;;;;;;;;;;;
2021/05/15 11:00:30;;;;;;;3.70;1.40;;;24.70;48.90;;;;;;5956971;24;20477;-88
2021/05/15 11:03:16;;;;;;;1.07;0.87;;;21.30;51.20;;;;;;5971289;23;20872;-89
2021/05/15 11:09:00;;;;;;;2.00;1.67;;;18.90;57.80;;;;;;6074880;23;20481;-88
2021/05/15 11:18:56;;;;;;;1.33;1.00;;;18.20;63.30;;;;;;6115502;23;20536;-88
2021/05/15 11:22:07;;;;;;;3.23;1.33;;;17.70;60.20;;;;;;6168718;23;20406;-88
2021/05/15 11:28:49;;;;;;;;;;;;;;;;;;;;;
2021/05/15 11:34:37;;;;;;;3.00;1.60;;;17.10;58.60;;;;;;6176182;23;20427;-89
2021/05/15 11:37:52;;;;;;;;;;;;;;;;;;;;;
2021/05/15 11:44:14;;;;;;;1.20;1.00;;;17.30;58.00;;;;;;6200207;23;20417;-88
2021/05/15 11:46:45;;;;;;;1.20;1.10;;;17.50;58.60;;;;;;6204650;23;20434;-87
2021/05/15 11:49:23;;;;;;;2.07;1.17;;;17.80;56.80;;;;;;6208762;23;20371;-86
2021/05/15 11:51:58;;;;;;;4.57;1.17;;;18.10;57.30;;;;;;6214936;23;20374;-86
2021/05/15 11:54:24;;;;;;;3.10;1.20;;;18.50;55.70;;;;;;6214650;23;20409;-87
2021/05/15 11:56:56;;;;;;;2.00;1.30;;;19.00;55.30;;;;;;6213784;23;20497;-88
2021/05/15 11:59:25;;;;;;;1.80;1.10;;;19.30;54.80;;;;;;6213320;23;20437;-87
2021/05/15 12:01:53;;;;;;;2.00;1.17;;;19.30;54.30;;;;;;6192593;23;20402;-89
2021/05/15 12:16:46;;;;;;;6.20;3.77;;;19.90;53.80;;;;;;6195547;23;20750;-88
2021/05/15 12:23:04;;;;;;;2.40;1.33;;;20.10;54.00;;;;;;6147866;23;20790;-88
2021/05/15 12:29:31;;;;;;;3.37;1.17;;;19.60;54.70;;;;;;6209575;23;20459;-89
2021/05/15 12:39:05;;;;;;;1.70;0.97;;;20.00;53.10;;;;;;6206928;23;20375;-89
2021/05/15 12:58:44;;;;;;;1.30;0.90;;;19.80;53.30;;;;;;6195804;22;20836;-90
2021/05/15 13:23:00;;;;;;;1.10;0.73;;;18.10;55.30;;;;;;6019611;23;20420;-87
2021/05/15 14:04:40;;;;;;;1.73;1.07;;;18.00;57.60;;;;;;5905036;23;20448;-88
2021/05/15 14:07:55;;;;;;;;;;;;;;;;;;;;;
2021/05/15 14:27:39;;;;;;;2.40;1.27;;;21.00;52.40;;;;;;5949424;23;20475;-87
2021/05/15 14:44:29;;;;;;;3.30;1.30;;;19.50;54.90;;;;;;5898571;24;20498;-87
2021/05/15 14:54:00;;;;;;;1.53;1.10;;;19.00;55.00;;;;;;5952547;24;20419;-87
2021/05/15 14:56:26;;;;;;;1.97;1.27;;;18.50;56.10;;;;;;5958169;23;20513;-86
2021/05/15 14:58:55;;;;;;;2.80;0.90;;;18.20;56.60;;;;;;6026375;23;20467;-86
2021/05/15 15:01:22;;;;;;;3.67;1.70;;;18.00;57.00;;;;;;6131836;23;20817;-87
2021/05/15 15:03:49;;;;;;;3.27;1.73;;;17.90;57.20;;;;;;6185975;23;20400;-87
2021/05/15 15:06:15;;;;;;;3.30;1.43;;;17.90;58.50;;;;;;6186297;23;20444;-89
2021/05/15 15:08:42;;;;;;;4.10;1.10;;;17.80;57.50;;;;;;6200366;23;20425;-86
2021/05/15 15:11:08;;;;;;;1.87;1.50;;;17.60;58.00;;;;;;6211317;23;20397;-85
2021/05/15 15:13:35;;;;;;;3.00;1.40;;;17.50;58.90;;;;;;6194140;23;20407;-85
2021/05/15 15:16:02;;;;;;;2.10;1.13;;;17.30;59.10;;;;;;6189075;23;20436;-84
2021/05/15 15:18:30;;;;;;;1.80;1.27;;;17.30;59.70;;;;;;6191047;23;20848;-85
2021/05/15 15:20:57;;;;;;;1.97;1.20;;;17.20;59.90;;;;;;6189382;23;20441;-85
2021/05/15 15:23:23;;;;;;;3.37;1.10;;;17.20;60.00;;;;;;6198889;23;20439;-84
2021/05/15 15:25:50;;;;;;;4.23;1.30;;;17.10;60.70;;;;;;6198402;23;20494;-84
2021/05/15 15:28:17;;;;;;;1.20;1.07;;;17.10;60.30;;;;;;6188936;23;20488;-84
2021/05/15 15:30:43;;;;;;;3.07;1.20;;;17.00;61.30;;;;;;6190316;23;20405;-86
2021/05/15 15:33:11;;;;;;;2.30;1.30;;;16.90;61.80;;;;;;6188509;23;20923;-84
2021/05/15 15:35:37;;;;;;;1.33;1.23;;;16.80;62.40;;;;;;6187461;23;20532;-84
2021/05/15 15:38:04;;;;;;;1.77;1.50;;;16.80;62.90;;;;;;6187668;23;20391;-85
2021/05/15 15:40:31;;;;;;;1.30;1.20;;;16.80;63.90;;;;;;6188689;23;20445;-84
2021/05/15 15:42:57;;;;;;;2.03;1.30;;;16.90;63.80;;;;;;6187896;23;20492;-85
2021/05/15 15:45:24;;;;;;;2.50;1.47;;;16.90;63.80;;;;;;6191188;23;20438;-84
2021/05/15 15:47:50;;;;;;;2.90;1.80;;;16.90;64.30;;;;;;6190403;23;20490;-85
2021/05/15 15:50:17;;;;;;;3.33;1.53;;;16.90;65.70;;;;;;6189965;23;20766;-87
2021/05/15 15:52:47;;;;;;;3.27;1.80;;;16.70;68.80;;;;;;6189212;23;20847;-89
2021/05/15 15:55:16;;;;;;;3.83;1.20;;;16.30;73.70;;;;;;6188883;23;20425;-87
2021/05/15 15:57:43;;;;;;;2.30;1.20;;;15.70;77.60;;;;;;6186840;23;20376;-87
2021/05/15 16:00:13;;;;;;;2.33;1.40;;;15.40;82.50;;;;;;6184542;23;20828;-88
2021/05/15 16:02:40;;;;;;;1.93;1.50;;;15.20;83.70;;;;;;6186572;23;20424;-87
2021/05/15 16:05:08;;;;;;;2.47;1.10;;;15.10;86.60;;;;;;6192613;23;20414;-88
2021/05/15 16:07:45;;;;;;;;;;;;;;;;;;;;;
2021/05/15 16:21:30;;;;;;;8.00;2.40;;;14.80;88.10;;;;;;6042501;23;20442;-87
2021/05/15 16:51:31;;;;;;;4.57;1.80;;;14.20;91.10;;;;;;6188582;23;20411;-87
2021/05/15 16:54:49;;;;;;;2.60;1.43;;;14.10;93.10;;;;;;6190910;23;20469;-88
2021/05/15 16:57:36;;;;;;;2.60;1.53;;;14.10;94.20;;;;;;6194893;23;20868;-88
2021/05/15 17:07:31;;;;;;;1.40;1.27;;;14.10;93.00;;;;;;6090493;23;20913;-87
2021/05/15 17:10:55;;;;;;;1.50;1.33;;;14.20;92.60;;;;;;6185221;23;20558;-88
2021/05/15 17:34:17;;;;;;;1.80;0.90;;;14.00;90.20;;;;;;6217672;22;20443;-89
2021/05/15 17:36:44;;;;;;;1.00;0.83;;;14.00;90.10;;;;;;6213960;23;20416;-89
2021/05/15 17:39:11;;;;;;;2.23;1.20;;;14.00;89.90;;;;;;6216024;23;20408;-87
2021/05/15 17:41:38;;;;;;;1.53;0.90;;;13.90;89.50;;;;;;6216428;23;20444;-89
2021/05/15 17:44:04;;;;;;;1.97;1.00;;;13.90;89.80;;;;;;6216538;23;20432;-89
2021/05/15 17:46:30;;;;;;;1.43;0.90;;;13.80;89.00;;;;;;6220023;23;20437;-89
2021/05/15 17:48:57;;;;;;;0.90;0.80;;;13.80;89.50;;;;;;6231036;23;20403;-89
2021/05/15 17:51:24;;;;;;;1.53;0.87;;;13.70;89.00;;;;;;6218428;23;20489;-88
2021/05/15 17:53:52;;;;;;;1.73;1.00;;;13.60;89.50;;;;;;6219220;23;20485;-88
2021/05/15 17:56:20;;;;;;;1.30;0.80;;;13.60;90.00;;;;;;6225333;23;20428;-88